sensor_id;sensor_type;location;lat;lon;timestamp;P1;durP1;ratioP1;P2;durP2;ratioP2
10005;SDS011;5042;42.626;23.382;2023-05-07T00:02:17;4.57;;;3.97;;
10005;SDS011;5042;42.626;23.382;2023-05-07T00:04:44;5.10;;;3.90;;
10005;SDS011;5042;42.626;23.382;2023-05-07T00:07:10;3.97;;;3.67;;
10005;SDS011;5042;42.626;23.382;2023-05-07T00:09:37;3.87;;;3.40;;
10005;SDS011;5042;42.626;23.382;2023-05-07T00:12:05;3.93;;;3.63;;
10005;SDS011;5042;42.626;23.382;2023-05-07T00:14:32;4.27;;;3.87;;
10005;SDS011;5042;42.626;23.382;2023-05-07T00:16:58;5.00;;;3.80;;
10005;SDS011;5042;42.626;23.382;2023-05-07T00:19:27;4.57;;;4.00;;
10005;SDS011;5042;42.626;23.382;2023-05-07T00:21:53;5.50;;;4.97;;
10005;SDS011;5042;42.626;23.382;2023-05-07T00:24:21;5.63;;;5.03;;
10005;SDS011;5042;42.626;23.382;2023-05-07T00:26:47;6.23;;;5.63;;
10005;SDS011;5042;42.626;23.382;2023-05-07T00:29:14;6.63;;;5.27;;
10005;SDS011;5042;42.626;23.382;2023-05-07T00:31:41;6.80;;;6.10;;
10005;SDS011;5042;42.626;23.382;2023-05-07T00:34:07;7.03;;;6.13;;
10005;SDS011;5042;42.626;23.382;2023-05-07T00:36:36;8.77;;;6.80;;
10005;SDS011;5042;42.626;23.382;2023-05-07T00:39:02;9.63;;;5.80;;
10005;SDS011;5042;42.626;23.382;2023-05-07T00:41:29;10.23;;;6.47;;
10005;SDS011;5042;42.626;23.382;2023-05-07T00:43:56;6.67;;;5.47;;
10005;SDS011;5042;42.626;23.382;2023-05-07T00:46:23;4.90;;;4.40;;
10005;SDS011;5042;42.626;23.382;2023-05-07T00:48:50;4.33;;;3.83;;
10005;SDS011;5042;42.626;23.382;2023-05-07T00:51:18;4.53;;;4.03;;
10005;SDS011;5042;42.626;23.382;2023-05-07T00:53:46;4.20;;;3.80;;
10005;SDS011;5042;42.626;23.382;2023-05-07T00:56:13;6.30;;;4.47;;
10005;SDS011;5042;42.626;23.382;2023-05-07T00:58:40;5.13;;;4.27;;
10005;SDS011;5042;42.626;23.382;2023-05-07T01:01:07;4.50;;;4.10;;
10005;SDS011;5042;42.626;23.382;2023-05-07T01:03:34;5.83;;;4.03;;
10005;SDS011;5042;42.626;23.382;2023-05-07T01:06:01;4.83;;;4.10;;
10005;SDS011;5042;42.626;23.382;2023-05-07T01:08:29;5.13;;;4.07;;
10005;SDS011;5042;42.626;23.382;2023-05-07T01:10:58;5.10;;;4.60;;
10005;SDS011;5042;42.626;23.382;2023-05-07T01:13:26;5.40;;;4.50;;
10005;SDS011;5042;42.626;23.382;2023-05-07T01:15:54;4.90;;;4.50;;
10005;SDS011;5042;42.626;23.382;2023-05-07T01:18:20;4.83;;;4.33;;
10005;SDS011;5042;42.626;23.382;2023-05-07T01:20:47;4.70;;;4.23;;
10005;SDS011;5042;42.626;23.382;2023-05-07T01:23:15;5.23;;;4.30;;
10005;SDS011;5042;42.626;23.382;2023-05-07T01:25:50;5.23;;;4.73;;
10005;SDS011;5042;42.626;23.382;2023-05-07T01:28:17;5.80;;;4.83;;
10005;SDS011;5042;42.626;23.382;2023-05-07T01:30:44;5.07;;;4.43;;
10005;SDS011;5042;42.626;23.382;2023-05-07T01:33:14;7.43;;;4.90;;
10005;SDS011;5042;42.626;23.382;2023-05-07T01:35:45;6.03;;;4.90;;
10005;SDS011;5042;42.626;23.382;2023-05-07T01:38:16;6.53;;;5.07;;
10005;SDS011;5042;42.626;23.382;2023-05-07T01:40:44;6.47;;;5.23;;
10005;SDS011;5042;42.626;23.382;2023-05-07T01:43:12;7.50;;;5.70;;
10005;SDS011;5042;42.626;23.382;2023-05-07T01:45:38;7.53;;;5.70;;
10005;SDS011;5042;42.626;23.382;2023-05-07T01:48:06;7.37;;;5.80;;
10005;SDS011;5042;42.626;23.382;2023-05-07T01:50:34;8.93;;;5.77;;
10005;SDS011;5042;42.626;23.382;2023-05-07T01:53:03;7.37;;;6.27;;
10005;SDS011;5042;42.626;23.382;2023-05-07T01:55:31;7.17;;;6.27;;
10005;SDS011;5042;42.626;23.382;2023-05-07T01:57:57;11.37;;;6.97;;
10005;SDS011;5042;42.626;23.382;2023-05-07T02:00:24;8.13;;;6.90;;
10005;SDS011;5042;42.626;23.382;2023-05-07T02:02:51;9.00;;;6.90;;
10005;SDS011;5042;42.626;23.382;2023-05-07T02:05:18;8.80;;;7.00;;
10005;SDS011;5042;42.626;23.382;2023-05-07T02:07:45;7.13;;;6.43;;
10005;SDS011;5042;42.626;23.382;2023-05-07T02:10:12;7.33;;;6.33;;
10005;SDS011;5042;42.626;23.382;2023-05-07T02:12:40;9.40;;;6.97;;
10005;SDS011;5042;42.626;23.382;2023-05-07T02:15:08;8.00;;;7.20;;
10005;SDS011;5042;42.626;23.382;2023-05-07T02:17:35;8.07;;;6.30;;
10005;SDS011;5042;42.626;23.382;2023-05-07T02:20:06;8.07;;;6.30;;
10005;SDS011;5042;42.626;23.382;2023-05-07T02:22:38;10.00;;;7.50;;
10005;SDS011;5042;42.626;23.382;2023-05-07T02:25:05;7.67;;;6.63;;
10005;SDS011;5042;42.626;23.382;2023-05-07T02:27:31;8.83;;;7.33;;
10005;SDS011;5042;42.626;23.382;2023-05-07T02:30:00;9.07;;;7.03;;
10005;SDS011;5042;42.626;23.382;2023-05-07T02:32:26;7.70;;;6.83;;
10005;SDS011;5042;42.626;23.382;2023-05-07T02:34:53;8.70;;;7.37;;
10005;SDS011;5042;42.626;23.382;2023-05-07T02:37:20;7.70;;;6.90;;
10005;SDS011;5042;42.626;23.382;2023-05-07T02:39:47;9.60;;;7.00;;
10005;SDS011;5042;42.626;23.382;2023-05-07T02:42:14;8.00;;;6.80;;
10005;SDS011;5042;42.626;23.382;2023-05-07T02:44:41;7.70;;;6.87;;
10005;SDS011;5042;42.626;23.382;2023-05-07T02:47:09;10.37;;;7.53;;
10005;SDS011;5042;42.626;23.382;2023-05-07T02:49:38;6.43;;;5.10;;
10005;SDS011;5042;42.626;23.382;2023-05-07T02:52:04;8.53;;;7.63;;
10005;SDS011;5042;42.626;23.382;2023-05-07T02:54:31;11.60;;;8.00;;
10005;SDS011;5042;42.626;23.382;2023-05-07T02:56:58;4.83;;;4.37;;
10005;SDS011;5042;42.626;23.382;2023-05-07T02:59:25;7.27;;;5.80;;
10005;SDS011;5042;42.626;23.382;2023-05-07T03:01:52;9.57;;;8.37;;
10005;SDS011;5042;42.626;23.382;2023-05-07T03:04:20;10.50;;;8.40;;
10005;SDS011;5042;42.626;23.382;2023-05-07T03:06:47;11.60;;;8.90;;
10005;SDS011;5042;42.626;23.382;2023-05-07T03:09:13;10.97;;;8.90;;
10005;SDS011;5042;42.626;23.382;2023-05-07T03:11:41;12.47;;;9.47;;
10005;SDS011;5042;42.626;23.382;2023-05-07T03:14:08;12.93;;;9.13;;
10005;SDS011;5042;42.626;23.382;2023-05-07T03:16:35;13.90;;;9.40;;
10005;SDS011;5042;42.626;23.382;2023-05-07T03:19:02;11.50;;;9.30;;
10005;SDS011;5042;42.626;23.382;2023-05-07T03:21:30;11.10;;;9.00;;
10005;SDS011;5042;42.626;23.382;2023-05-07T03:23:58;14.73;;;10.17;;
10005;SDS011;5042;42.626;23.382;2023-05-07T03:26:25;14.70;;;10.17;;
10005;SDS011;5042;42.626;23.382;2023-05-07T03:28:52;14.37;;;10.13;;
10005;SDS011;5042;42.626;23.382;2023-05-07T03:31:19;11.33;;;9.13;;
10005;SDS011;5042;42.626;23.382;2023-05-07T03:33:49;12.30;;;8.87;;
10005;SDS011;5042;42.626;23.382;2023-05-07T03:36:18;13.90;;;9.87;;
10005;SDS011;5042;42.626;23.382;2023-05-07T03:38:46;12.70;;;9.63;;
10005;SDS011;5042;42.626;23.382;2023-05-07T03:41:13;11.37;;;9.30;;
10005;SDS011;5042;42.626;23.382;2023-05-07T03:43:40;12.83;;;8.77;;
10005;SDS011;5042;42.626;23.382;2023-05-07T03:46:07;14.43;;;9.97;;
10005;SDS011;5042;42.626;23.382;2023-05-07T03:48:33;12.17;;;9.43;;
10005;SDS011;5042;42.626;23.382;2023-05-07T03:51:00;13.30;;;9.37;;
10005;SDS011;5042;42.626;23.382;2023-05-07T03:53:27;12.57;;;9.90;;
10005;SDS011;5042;42.626;23.382;2023-05-07T03:55:55;12.47;;;9.30;;
10005;SDS011;5042;42.626;23.382;2023-05-07T03:58:22;11.73;;;9.77;;
10005;SDS011;5042;42.626;23.382;2023-05-07T04:00:48;11.20;;;9.10;;
10005;SDS011;5042;42.626;23.382;2023-05-07T04:03:15;14.07;;;8.93;;
10005;SDS011;5042;42.626;23.382;2023-05-07T04:05:42;10.90;;;8.80;;
10005;SDS011;5042;42.626;23.382;2023-05-07T04:08:09;11.13;;;8.70;;
10005;SDS011;5042;42.626;23.382;2023-05-07T04:10:35;10.47;;;8.20;;
10005;SDS011;5042;42.626;23.382;2023-05-07T04:13:03;12.13;;;8.20;;
10005;SDS011;5042;42.626;23.382;2023-05-07T04:15:30;11.40;;;8.20;;
10005;SDS011;5042;42.626;23.382;2023-05-07T04:17:57;11.80;;;7.50;;
10005;SDS011;5042;42.626;23.382;2023-05-07T04:20:23;11.37;;;7.97;;
10005;SDS011;5042;42.626;23.382;2023-05-07T04:22:50;10.37;;;7.13;;
10005;SDS011;5042;42.626;23.382;2023-05-07T04:25:17;9.27;;;7.60;;
10005;SDS011;5042;42.626;23.382;2023-05-07T04:27:44;10.17;;;7.60;;
10005;SDS011;5042;42.626;23.382;2023-05-07T04:30:12;9.68;;;7.57;;
10005;SDS011;5042;42.626;23.382;2023-05-07T04:32:39;9.93;;;6.97;;
10005;SDS011;5042;42.626;23.382;2023-05-07T04:35:06;9.30;;;7.60;;
10005;SDS011;5042;42.626;23.382;2023-05-07T04:37:33;8.93;;;7.03;;
10005;SDS011;5042;42.626;23.382;2023-05-07T04:40:00;8.23;;;6.57;;
10005;SDS011;5042;42.626;23.382;2023-05-07T04:42:27;8.17;;;6.80;;
10005;SDS011;5042;42.626;23.382;2023-05-07T04:44:54;8.07;;;6.72;;
10005;SDS011;5042;42.626;23.382;2023-05-07T04:47:22;7.70;;;6.40;;
10005;SDS011;5042;42.626;23.382;2023-05-07T04:49:49;8.43;;;6.68;;
10005;SDS011;5042;42.626;23.382;2023-05-07T04:52:16;8.43;;;6.30;;
10005;SDS011;5042;42.626;23.382;2023-05-07T04:54:43;8.52;;;6.63;;
10005;SDS011;5042;42.626;23.382;2023-05-07T04:57:09;9.95;;;6.68;;
10005;SDS011;5042;42.626;23.382;2023-05-07T04:59:36;7.15;;;5.93;;
10005;SDS011;5042;42.626;23.382;2023-05-07T05:02:03;8.32;;;7.07;;
10005;SDS011;5042;42.626;23.382;2023-05-07T05:04:31;8.82;;;6.28;;
10005;SDS011;5042;42.626;23.382;2023-05-07T05:06:58;7.38;;;5.63;;
10005;SDS011;5042;42.626;23.382;2023-05-07T05:09:25;7.07;;;5.20;;
10005;SDS011;5042;42.626;23.382;2023-05-07T05:11:51;6.95;;;5.45;;
10005;SDS011;5042;42.626;23.382;2023-05-07T05:14:18;7.45;;;6.10;;
10005;SDS011;5042;42.626;23.382;2023-05-07T05:16:45;7.80;;;6.07;;
10005;SDS011;5042;42.626;23.382;2023-05-07T05:19:12;7.13;;;5.82;;
10005;SDS011;5042;42.626;23.382;2023-05-07T05:21:40;8.48;;;6.18;;
10005;SDS011;5042;42.626;23.382;2023-05-07T05:24:07;6.80;;;6.03;;
10005;SDS011;5042;42.626;23.382;2023-05-07T05:26:34;8.95;;;6.25;;
10005;SDS011;5042;42.626;23.382;2023-05-07T05:29:00;9.27;;;6.25;;
10005;SDS011;5042;42.626;23.382;2023-05-07T05:31:27;7.60;;;5.97;;
10005;SDS011;5042;42.626;23.382;2023-05-07T05:33:54;8.65;;;5.95;;
10005;SDS011;5042;42.626;23.382;2023-05-07T05:36:20;6.18;;;5.43;;
10005;SDS011;5042;42.626;23.382;2023-05-07T05:38:49;6.82;;;5.78;;
10005;SDS011;5042;42.626;23.382;2023-05-07T05:41:16;5.95;;;5.35;;
10005;SDS011;5042;42.626;23.382;2023-05-07T05:43:42;7.97;;;5.90;;
10005;SDS011;5042;42.626;23.382;2023-05-07T05:46:09;7.55;;;5.75;;
10005;SDS011;5042;42.626;23.382;2023-05-07T05:48:36;8.38;;;6.03;;
10005;SDS011;5042;42.626;23.382;2023-05-07T05:51:03;6.22;;;5.50;;
10005;SDS011;5042;42.626;23.382;2023-05-07T05:53:30;7.78;;;6.10;;
10005;SDS011;5042;42.626;23.382;2023-05-07T05:55:58;8.93;;;6.13;;
10005;SDS011;5042;42.626;23.382;2023-05-07T05:58:25;7.40;;;5.63;;
10005;SDS011;5042;42.626;23.382;2023-05-07T06:00:52;7.43;;;5.60;;
10005;SDS011;5042;42.626;23.382;2023-05-07T06:03:19;8.27;;;5.95;;
10005;SDS011;5042;42.626;23.382;2023-05-07T06:05:46;6.18;;;5.43;;
10005;SDS011;5042;42.626;23.382;2023-05-07T06:08:13;8.10;;;5.53;;
10005;SDS011;5042;42.626;23.382;2023-05-07T06:10:40;7.15;;;4.97;;
10005;SDS011;5042;42.626;23.382;2023-05-07T06:13:08;6.05;;;5.35;;
10005;SDS011;5042;42.626;23.382;2023-05-07T06:15:34;6.88;;;5.57;;
10005;SDS011;5042;42.626;23.382;2023-05-07T06:18:01;6.68;;;5.10;;
10005;SDS011;5042;42.626;23.382;2023-05-07T06:20:28;6.88;;;5.13;;
10005;SDS011;5042;42.626;23.382;2023-05-07T06:22:55;5.72;;;4.82;;
10005;SDS011;5042;42.626;23.382;2023-05-07T06:25:21;6.45;;;4.90;;
10005;SDS011;5042;42.626;23.382;2023-05-07T06:27:48;7.25;;;4.75;;
10005;SDS011;5042;42.626;23.382;2023-05-07T06:30:16;5.60;;;4.78;;
10005;SDS011;5042;42.626;23.382;2023-05-07T06:32:43;6.38;;;4.75;;
10005;SDS011;5042;42.626;23.382;2023-05-07T06:35:09;7.25;;;5.22;;
10005;SDS011;5042;42.626;23.382;2023-05-07T06:37:36;5.78;;;5.03;;
10005;SDS011;5042;42.626;23.382;2023-05-07T06:40:04;6.20;;;4.80;;
10005;SDS011;5042;42.626;23.382;2023-05-07T06:42:32;6.38;;;4.22;;
10005;SDS011;5042;42.626;23.382;2023-05-07T06:44:58;6.45;;;4.82;;
10005;SDS011;5042;42.626;23.382;2023-05-07T06:47:27;4.93;;;4.25;;
10005;SDS011;5042;42.626;23.382;2023-05-07T06:49:54;7.28;;;4.22;;
10005;SDS011;5042;42.626;23.382;2023-05-07T06:52:21;7.28;;;5.20;;
10005;SDS011;5042;42.626;23.382;2023-05-07T06:54:47;5.93;;;4.97;;
10005;SDS011;5042;42.626;23.382;2023-05-07T06:57:14;5.57;;;4.65;;
10005;SDS011;5042;42.626;23.382;2023-05-07T06:59:41;6.95;;;4.63;;
10005;SDS011;5042;42.626;23.382;2023-05-07T07:02:08;7.78;;;4.90;;
10005;SDS011;5042;42.626;23.382;2023-05-07T07:04:36;5.65;;;4.63;;
10005;SDS011;5042;42.626;23.382;2023-05-07T07:07:02;5.95;;;4.72;;
10005;SDS011;5042;42.626;23.382;2023-05-07T07:09:29;5.75;;;4.63;;
10005;SDS011;5042;42.626;23.382;2023-05-07T07:11:56;5.70;;;4.60;;
10005;SDS011;5042;42.626;23.382;2023-05-07T07:14:23;5.78;;;4.53;;
10005;SDS011;5042;42.626;23.382;2023-05-07T07:16:49;4.82;;;3.90;;
10005;SDS011;5042;42.626;23.382;2023-05-07T07:19:16;5.88;;;4.57;;
10005;SDS011;5042;42.626;23.382;2023-05-07T07:21:44;6.53;;;4.78;;
10005;SDS011;5042;42.626;23.382;2023-05-07T07:24:11;5.70;;;4.97;;
10005;SDS011;5042;42.626;23.382;2023-05-07T07:26:44;4.85;;;4.20;;
10005;SDS011;5042;42.626;23.382;2023-05-07T07:29:10;5.70;;;4.35;;
10005;SDS011;5042;42.626;23.382;2023-05-07T07:31:38;4.43;;;4.07;;
10005;SDS011;5042;42.626;23.382;2023-05-07T07:34:04;5.10;;;4.60;;
10005;SDS011;5042;42.626;23.382;2023-05-07T07:36:31;4.90;;;4.22;;
10005;SDS011;5042;42.626;23.382;2023-05-07T07:38:59;5.45;;;4.82;;
10005;SDS011;5042;42.626;23.382;2023-05-07T08:25:02;5.22;;;4.38;;
10005;SDS011;5042;42.626;23.382;2023-05-07T08:27:30;5.72;;;4.70;;
10005;SDS011;5042;42.626;23.382;2023-05-07T08:30:02;5.03;;;4.50;;
10005;SDS011;5042;42.626;23.382;2023-05-07T08:32:36;5.53;;;4.60;;
10005;SDS011;5042;42.626;23.382;2023-05-07T08:35:17;5.82;;;5.22;;
10005;SDS011;5042;42.626;23.382;2023-05-07T08:37:44;5.00;;;4.50;;
10005;SDS011;5042;42.626;23.382;2023-05-07T08:40:14;5.15;;;4.43;;
10005;SDS011;5042;42.626;23.382;2023-05-07T08:42:58;5.20;;;4.70;;
10005;SDS011;5042;42.626;23.382;2023-05-07T08:45:35;5.47;;;4.65;;
10005;SDS011;5042;42.626;23.382;2023-05-07T08:48:08;6.55;;;5.03;;
10005;SDS011;5042;42.626;23.382;2023-05-07T08:50:44;7.03;;;4.78;;
10005;SDS011;5042;42.626;23.382;2023-05-07T08:53:31;4.93;;;4.43;;
10005;SDS011;5042;42.626;23.382;2023-05-07T08:56:15;4.20;;;3.65;;
10005;SDS011;5042;42.626;23.382;2023-05-07T08:58:46;5.10;;;4.20;;
10005;SDS011;5042;42.626;23.382;2023-05-07T09:01:13;4.32;;;3.92;;
10005;SDS011;5042;42.626;23.382;2023-05-07T09:03:42;4.53;;;3.55;;
10005;SDS011;5042;42.626;23.382;2023-05-07T09:06:26;4.07;;;3.60;;
10005;SDS011;5042;42.626;23.382;2023-05-07T09:08:53;5.30;;;3.85;;
10005;SDS011;5042;42.626;23.382;2023-05-07T09:11:37;4.95;;;4.40;;
10005;SDS011;5042;42.626;23.382;2023-05-07T09:14:04;5.22;;;4.63;;
10005;SDS011;5042;42.626;23.382;2023-05-07T09:16:31;4.55;;;4.05;;
10005;SDS011;5042;42.626;23.382;2023-05-07T09:18:58;5.97;;;4.35;;
10005;SDS011;5042;42.626;23.382;2023-05-07T09:21:26;4.30;;;3.90;;
10005;SDS011;5042;42.626;23.382;2023-05-07T09:23:53;5.13;;;4.30;;
10005;SDS011;5042;42.626;23.382;2023-05-07T09:26:21;6.05;;;4.00;;
10005;SDS011;5042;42.626;23.382;2023-05-07T09:28:50;5.35;;;3.63;;
10005;SDS011;5042;42.626;23.382;2023-05-07T09:31:17;3.95;;;3.55;;
10005;SDS011;5042;42.626;23.382;2023-05-07T09:33:44;4.07;;;3.67;;
10005;SDS011;5042;42.626;23.382;2023-05-07T09:36:11;5.93;;;4.00;;
10005;SDS011;5042;42.626;23.382;2023-05-07T09:38:38;4.38;;;3.97;;
10005;SDS011;5042;42.626;23.382;2023-05-07T09:41:06;3.72;;;3.42;;
10005;SDS011;5042;42.626;23.382;2023-05-07T09:43:35;5.63;;;3.92;;
10005;SDS011;5042;42.626;23.382;2023-05-07T09:46:06;3.67;;;3.38;;
10005;SDS011;5042;42.626;23.382;2023-05-07T09:48:37;4.20;;;3.80;;
10005;SDS011;5042;42.626;23.382;2023-05-07T09:51:06;3.80;;;3.50;;
10005;SDS011;5042;42.626;23.382;2023-05-07T09:53:41;4.00;;;3.70;;
10005;SDS011;5042;42.626;23.382;2023-05-07T09:56:11;3.72;;;3.42;;
10005;SDS011;5042;42.626;23.382;2023-05-07T09:58:39;4.10;;;3.58;;
10005;SDS011;5042;42.626;23.382;2023-05-07T10:01:09;4.18;;;3.75;;
10005;SDS011;5042;42.626;23.382;2023-05-07T10:03:37;5.57;;;3.53;;
10005;SDS011;5042;42.626;23.382;2023-05-07T10:06:08;4.13;;;3.72;;
10005;SDS011;5042;42.626;23.382;2023-05-07T10:08:35;4.07;;;3.60;;
10005;SDS011;5042;42.626;23.382;2023-05-07T10:11:03;4.18;;;3.78;;
10005;SDS011;5042;42.626;23.382;2023-05-07T10:13:31;3.88;;;3.30;;
10005;SDS011;5042;42.626;23.382;2023-05-07T10:15:59;3.70;;;3.22;;
10005;SDS011;5042;42.626;23.382;2023-05-07T10:18:28;3.65;;;3.33;;
10005;SDS011;5042;42.626;23.382;2023-05-07T10:21:00;4.63;;;3.50;;
10005;SDS011;5042;42.626;23.382;2023-05-07T10:23:33;3.47;;;3.17;;
10005;SDS011;5042;42.626;23.382;2023-05-07T10:26:00;3.70;;;3.30;;
10005;SDS011;5042;42.626;23.382;2023-05-07T10:28:30;4.18;;;3.88;;
10005;SDS011;5042;42.626;23.382;2023-05-07T10:31:03;4.15;;;3.75;;
10005;SDS011;5042;42.626;23.382;2023-05-07T10:33:46;5.57;;;4.15;;
10005;SDS011;5042;42.626;23.382;2023-05-07T10:36:16;4.70;;;3.63;;
10005;SDS011;5042;42.626;23.382;2023-05-07T10:38:44;4.10;;;3.70;;
10005;SDS011;5042;42.626;23.382;2023-05-07T10:41:11;4.03;;;3.63;;
10005;SDS011;5042;42.626;23.382;2023-05-07T10:43:40;4.55;;;4.15;;
10005;SDS011;5042;42.626;23.382;2023-05-07T10:46:13;4.43;;;3.72;;
10005;SDS011;5042;42.626;23.382;2023-05-07T10:51:35;4.13;;;3.72;;
10005;SDS011;5042;42.626;23.382;2023-05-07T10:54:20;3.80;;;3.50;;
10005;SDS011;5042;42.626;23.382;2023-05-07T10:56:48;4.15;;;3.85;;
10005;SDS011;5042;42.626;23.382;2023-05-07T10:59:35;4.40;;;3.95;;
10005;SDS011;5042;42.626;23.382;2023-05-07T11:02:07;4.00;;;3.67;;
10005;SDS011;5042;42.626;23.382;2023-05-07T11:04:37;5.40;;;4.00;;
10005;SDS011;5042;42.626;23.382;2023-05-07T11:07:20;4.35;;;3.85;;
10005;SDS011;5042;42.626;23.382;2023-05-07T11:09:57;5.10;;;4.10;;
10005;SDS011;5042;42.626;23.382;2023-05-07T11:15:36;4.07;;;3.72;;
10005;SDS011;5042;42.626;23.382;2023-05-07T11:18:04;5.05;;;4.05;;
10005;SDS011;5042;42.626;23.382;2023-05-07T11:26:42;3.90;;;3.60;;
10005;SDS011;5042;42.626;23.382;2023-05-07T11:29:11;4.95;;;4.28;;
10005;SDS011;5042;42.626;23.382;2023-05-07T11:31:39;4.43;;;4.03;;
10005;SDS011;5042;42.626;23.382;2023-05-07T11:34:06;4.00;;;3.58;;
10005;SDS011;5042;42.626;23.382;2023-05-07T11:36:35;4.15;;;3.72;;
10005;SDS011;5042;42.626;23.382;2023-05-07T11:39:22;4.53;;;4.18;;
10005;SDS011;5042;42.626;23.382;2023-05-07T11:41:50;4.60;;;4.20;;
10005;SDS011;5042;42.626;23.382;2023-05-07T11:44:16;4.05;;;3.75;;
10005;SDS011;5042;42.626;23.382;2023-05-07T11:46:43;3.90;;;3.50;;
10005;SDS011;5042;42.626;23.382;2023-05-07T11:49:11;4.47;;;3.80;;
10005;SDS011;5042;42.626;23.382;2023-05-07T11:51:39;4.00;;;3.60;;
10005;SDS011;5042;42.626;23.382;2023-05-07T11:54:07;4.53;;;4.03;;
10005;SDS011;5042;42.626;23.382;2023-05-07T11:56:36;4.60;;;4.20;;
10005;SDS011;5042;42.626;23.382;2023-05-07T11:59:04;4.28;;;3.88;;
10005;SDS011;5042;42.626;23.382;2023-05-07T12:01:31;4.03;;;3.72;;
10005;SDS011;5042;42.626;23.382;2023-05-07T12:03:57;4.03;;;3.63;;
10005;SDS011;5042;42.626;23.382;2023-05-07T12:06:24;4.25;;;3.85;;
10005;SDS011;5042;42.626;23.382;2023-05-07T12:08:53;4.40;;;4.10;;
10005;SDS011;5042;42.626;23.382;2023-05-07T12:11:24;4.70;;;4.30;;
10005;SDS011;5042;42.626;23.382;2023-05-07T12:13:53;4.30;;;3.90;;
10005;SDS011;5042;42.626;23.382;2023-05-07T12:16:21;5.32;;;4.20;;
10005;SDS011;5042;42.626;23.382;2023-05-07T12:18:48;4.10;;;3.80;;
10005;SDS011;5042;42.626;23.382;2023-05-07T12:21:15;5.30;;;4.22;;
10005;SDS011;5042;42.626;23.382;2023-05-07T12:23:42;4.32;;;4.00;;
10005;SDS011;5042;42.626;23.382;2023-05-07T12:26:11;4.32;;;3.92;;
10005;SDS011;5042;42.626;23.382;2023-05-07T12:28:38;4.18;;;3.78;;
10005;SDS011;5042;42.626;23.382;2023-05-07T12:31:05;4.35;;;3.95;;
10005;SDS011;5042;42.626;23.382;2023-05-07T12:33:32;4.38;;;3.97;;
10005;SDS011;5042;42.626;23.382;2023-05-07T12:36:02;4.53;;;4.13;;
10005;SDS011;5042;42.626;23.382;2023-05-07T12:38:34;5.20;;;4.70;;
10005;SDS011;5042;42.626;23.382;2023-05-07T12:41:01;4.20;;;3.85;;
10005;SDS011;5042;42.626;23.382;2023-05-07T12:43:30;4.28;;;3.97;;
10005;SDS011;5042;42.626;23.382;2023-05-07T12:45:57;4.40;;;3.97;;
10005;SDS011;5042;42.626;23.382;2023-05-07T12:48:27;5.45;;;4.32;;
10005;SDS011;5042;42.626;23.382;2023-05-07T12:50:54;4.60;;;4.20;;
10005;SDS011;5042;42.626;23.382;2023-05-07T12:53:21;4.47;;;4.07;;
10005;SDS011;5042;42.626;23.382;2023-05-07T12:55:50;4.47;;;4.07;;
10005;SDS011;5042;42.626;23.382;2023-05-07T12:58:20;5.25;;;3.97;;
10005;SDS011;5042;42.626;23.382;2023-05-07T13:00:51;4.50;;;4.10;;
10005;SDS011;5042;42.626;23.382;2023-05-07T13:03:20;4.22;;;3.90;;
10005;SDS011;5042;42.626;23.382;2023-05-07T13:05:49;4.22;;;3.83;;
10005;SDS011;5042;42.626;23.382;2023-05-07T13:08:29;4.68;;;3.38;;
10005;SDS011;5042;42.626;23.382;2023-05-07T13:10:57;4.10;;;3.70;;
10005;SDS011;5042;42.626;23.382;2023-05-07T13:13:28;3.95;;;3.65;;
10005;SDS011;5042;42.626;23.382;2023-05-07T13:15:56;6.35;;;3.90;;
10005;SDS011;5042;42.626;23.382;2023-05-07T13:18:24;4.10;;;3.70;;
10005;SDS011;5042;42.626;23.382;2023-05-07T13:20:51;4.80;;;4.00;;
10005;SDS011;5042;42.626;23.382;2023-05-07T13:23:18;3.92;;;3.63;;
10005;SDS011;5042;42.626;23.382;2023-05-07T13:25:44;3.78;;;3.47;;
10005;SDS011;5042;42.626;23.382;2023-05-07T13:28:11;4.00;;;3.70;;
10005;SDS011;5042;42.626;23.382;2023-05-07T13:30:38;3.92;;;3.55;;
10005;SDS011;5042;42.626;23.382;2023-05-07T13:33:07;4.35;;;4.05;;
10005;SDS011;5042;42.626;23.382;2023-05-07T13:35:33;3.88;;;3.58;;
10005;SDS011;5042;42.626;23.382;2023-05-07T13:38:00;3.30;;;3.10;;
10005;SDS011;5042;42.626;23.382;2023-05-07T13:40:27;3.05;;;2.85;;
10005;SDS011;5042;42.626;23.382;2023-05-07T13:42:56;2.90;;;2.70;;
10005;SDS011;5042;42.626;23.382;2023-05-07T13:45:24;3.05;;;2.75;;
10005;SDS011;5042;42.626;23.382;2023-05-07T13:47:52;3.17;;;2.88;;
10005;SDS011;5042;42.626;23.382;2023-05-07T13:50:20;5.68;;;4.25;;
10005;SDS011;5042;42.626;23.382;2023-05-07T13:52:46;3.35;;;2.92;;
10005;SDS011;5042;42.626;23.382;2023-05-07T13:55:15;5.35;;;2.75;;
10005;SDS011;5042;42.626;23.382;2023-05-07T13:57:42;2.88;;;2.67;;
10005;SDS011;5042;42.626;23.382;2023-05-07T14:00:10;2.67;;;2.47;;
10005;SDS011;5042;42.626;23.382;2023-05-07T14:02:37;3.42;;;2.63;;
10005;SDS011;5042;42.626;23.382;2023-05-07T14:05:04;2.80;;;2.60;;
10005;SDS011;5042;42.626;23.382;2023-05-07T14:07:33;2.58;;;2.38;;
10005;SDS011;5042;42.626;23.382;2023-05-07T14:09:59;2.78;;;2.58;;
10005;SDS011;5042;42.626;23.382;2023-05-07T14:12:26;2.90;;;2.70;;
10005;SDS011;5042;42.626;23.382;2023-05-07T14:14:53;3.30;;;2.80;;
10005;SDS011;5042;42.626;23.382;2023-05-07T14:17:20;2.80;;;2.60;;
10005;SDS011;5042;42.626;23.382;2023-05-07T14:19:48;2.90;;;2.53;;
10005;SDS011;5042;42.626;23.382;2023-05-07T14:22:15;2.92;;;2.72;;
10005;SDS011;5042;42.626;23.382;2023-05-07T14:24:43;3.15;;;2.67;;
10005;SDS011;5042;42.626;23.382;2023-05-07T14:27:09;3.70;;;2.83;;
10005;SDS011;5042;42.626;23.382;2023-05-07T14:29:36;2.72;;;2.53;;
10005;SDS011;5042;42.626;23.382;2023-05-07T14:32:03;3.50;;;2.78;;
10005;SDS011;5042;42.626;23.382;2023-05-07T14:34:30;3.80;;;2.58;;
10005;SDS011;5042;42.626;23.382;2023-05-07T14:36:57;3.25;;;2.70;;
10005;SDS011;5042;42.626;23.382;2023-05-07T14:39:26;3.03;;;2.83;;
10005;SDS011;5042;42.626;23.382;2023-05-07T14:41:54;2.80;;;2.60;;
10005;SDS011;5042;42.626;23.382;2023-05-07T14:44:21;2.97;;;2.70;;
10005;SDS011;5042;42.626;23.382;2023-05-07T14:46:48;2.67;;;2.47;;
10005;SDS011;5042;42.626;23.382;2023-05-07T14:49:14;2.65;;;2.45;;
10005;SDS011;5042;42.626;23.382;2023-05-07T14:51:42;4.80;;;3.20;;
10005;SDS011;5042;42.626;23.382;2023-05-07T14:54:10;3.35;;;2.97;;
10005;SDS011;5042;42.626;23.382;2023-05-07T14:56:37;3.10;;;2.88;;
10005;SDS011;5042;42.626;23.382;2023-05-07T14:59:05;3.13;;;2.83;;
10005;SDS011;5042;42.626;23.382;2023-05-07T15:01:33;2.95;;;2.75;;
10005;SDS011;5042;42.626;23.382;2023-05-07T15:04:00;2.67;;;2.47;;
10005;SDS011;5042;42.626;23.382;2023-05-07T15:06:29;3.33;;;2.75;;
10005;SDS011;5042;42.626;23.382;2023-05-07T15:08:56;2.83;;;2.63;;
10005;SDS011;5042;42.626;23.382;2023-05-07T15:11:23;2.72;;;2.53;;
10005;SDS011;5042;42.626;23.382;2023-05-07T15:13:50;3.00;;;2.80;;
10005;SDS011;5042;42.626;23.382;2023-05-07T15:16:18;2.78;;;2.58;;
10005;SDS011;5042;42.626;23.382;2023-05-07T15:18:45;3.72;;;2.80;;
10005;SDS011;5042;42.626;23.382;2023-05-07T15:21:12;3.00;;;2.70;;
10005;SDS011;5042;42.626;23.382;2023-05-07T15:23:39;2.78;;;2.45;;
10005;SDS011;5042;42.626;23.382;2023-05-07T15:26:08;2.75;;;2.55;;
10005;SDS011;5042;42.626;23.382;2023-05-07T15:28:35;2.80;;;2.60;;
10005;SDS011;5042;42.626;23.382;2023-05-07T15:31:03;2.90;;;2.70;;
10005;SDS011;5042;42.626;23.382;2023-05-07T15:33:31;2.80;;;2.60;;
10005;SDS011;5042;42.626;23.382;2023-05-07T15:35:58;2.75;;;2.55;;
10005;SDS011;5042;42.626;23.382;2023-05-07T15:38:25;2.97;;;2.78;;
10005;SDS011;5042;42.626;23.382;2023-05-07T15:40:52;3.10;;;2.80;;
10005;SDS011;5042;42.626;23.382;2023-05-07T15:43:19;2.83;;;2.63;;
10005;SDS011;5042;42.626;23.382;2023-05-07T15:45:46;3.50;;;3.10;;
10005;SDS011;5042;42.626;23.382;2023-05-07T15:48:13;2.70;;;2.50;;